createdAt,value
2022-11-30T00:01:25.261Z,31.02
2022-11-30T00:03:57.263Z,34.58
2022-11-30T00:06:25.577Z,33.20
2022-11-30T00:08:57.378Z,37.55
2022-11-30T00:11:27.505Z,33.28
2022-11-30T00:13:55.084Z,31.80
2022-11-30T00:16:22.738Z,36.33
2022-11-30T00:18:50.260Z,29.52
2022-11-30T00:21:19.735Z,33.03
2022-11-30T00:23:48.516Z,35.30
2022-11-30T00:26:19.009Z,33.03
2022-11-30T00:28:48.540Z,33.28
2022-11-30T00:31:18.590Z,33.15
2022-11-30T00:33:46.271Z,32.90
2022-11-30T00:36:24.713Z,32.05
2022-11-30T00:38:52.456Z,32.92
2022-11-30T00:41:20.388Z,33.58
2022-11-30T00:43:51.108Z,32.92
2022-11-30T00:46:18.260Z,34.63
2022-11-30T00:48:47.706Z,33.03
2022-11-30T00:51:15.058Z,32.50
2022-11-30T00:53:42.462Z,33.70
2022-11-30T00:56:10.631Z,35.20
2022-11-30T00:58:37.887Z,32.78
2022-11-30T01:01:05.411Z,34.40
2022-11-30T01:03:34.730Z,36.53
2022-11-30T01:06:07.612Z,36.65
2022-11-30T01:08:40.245Z,35.90
2022-11-30T01:11:18.290Z,35.75
2022-11-30T01:13:45.369Z,39.80
2022-11-30T01:16:18.596Z,36.40
2022-11-30T01:18:45.903Z,37.83
2022-11-30T01:21:18.337Z,38.53
2022-11-30T01:23:46.068Z,36.05
2022-11-30T01:26:13.552Z,35.78
2022-11-30T01:28:46.823Z,36.03
2022-11-30T01:31:15.141Z,36.97
2022-11-30T01:33:45.210Z,34.88
2022-11-30T01:36:21.544Z,30.98
2022-11-30T01:38:53.203Z,32.95
2022-11-30T01:41:31.069Z,35.25
2022-11-30T01:44:20.149Z,31.45
2022-11-30T01:47:09.322Z,32.78
2022-11-30T01:50:05.138Z,30.88
2022-11-30T01:52:47.239Z,28.48
2022-11-30T01:55:36.083Z,29.83
2022-11-30T01:58:17.668Z,28.92
2022-11-30T02:00:48.776Z,28.08
2022-11-30T02:03:42.363Z,28.90
2022-11-30T02:06:10.022Z,27.92
2022-11-30T02:08:37.204Z,28.85
2022-11-30T02:11:11.284Z,29.15
2022-11-30T02:14:06.008Z,28.40
2022-11-30T02:16:59.087Z,28.67
2022-11-30T02:19:50.818Z,28.75
2022-11-30T02:22:29.785Z,23.17
2022-11-30T02:25:26.017Z,27.60
2022-11-30T02:28:32.838Z,27.80
2022-11-30T02:31:02.449Z,28.70
2022-11-30T02:33:34.058Z,28.83
2022-11-30T02:36:03.837Z,28.60
2022-11-30T02:38:31.001Z,29.67
2022-11-30T02:40:58.042Z,29.88
2022-11-30T02:43:28.532Z,28.95
2022-11-30T02:46:45.164Z,30.20
2022-11-30T02:49:35.931Z,29.90
2022-11-30T02:52:04.712Z,30.38
2022-11-30T02:54:35.081Z,31.42
2022-11-30T02:57:02.124Z,30.42
2022-11-30T02:59:29.872Z,30.88
2022-11-30T03:01:57.547Z,31.45
2022-11-30T03:04:24.717Z,29.70
2022-11-30T03:06:54.258Z,32.42
2022-11-30T03:09:21.345Z,30.80
2022-11-30T03:11:50.415Z,31.45
2022-11-30T03:14:17.389Z,33.45
2022-11-30T03:16:44.463Z,28.13
2022-11-30T03:19:11.476Z,31.60
2022-11-30T03:21:38.577Z,30.48
2022-11-30T03:24:05.949Z,28.15
2022-11-30T03:26:32.989Z,29.20
2022-11-30T03:29:00.084Z,28.40
2022-11-30T03:31:27.221Z,29.27
2022-11-30T03:33:54.315Z,31.55
2022-11-30T03:36:21.334Z,28.60
2022-11-30T03:38:48.509Z,28.58
2022-11-30T03:41:17.973Z,30.33
2022-11-30T03:43:46.891Z,29.95
2022-11-30T03:46:16.673Z,30.05
2022-11-30T03:48:44.203Z,30.38
2022-11-30T03:51:13.379Z,30.92
2022-11-30T03:53:41.476Z,31.30
2022-11-30T03:56:10.680Z,29.48
2022-11-30T03:58:38.455Z,27.77
2022-11-30T04:01:10.918Z,30.77
2022-11-30T04:03:41.198Z,28.50
2022-11-30T04:06:13.449Z,29.65
2022-11-30T04:11:08.932Z,26.80
2022-11-30T04:13:40.115Z,24.30
2022-11-30T04:16:08.389Z,27.85
2022-11-30T04:18:39.125Z,25.52
2022-11-30T04:21:07.373Z,24.92
2022-11-30T04:23:40.332Z,25.63
2022-11-30T04:26:14.790Z,26.58
2022-11-30T04:28:42.452Z,27.52
2022-11-30T04:31:10.101Z,26.10
2022-11-30T04:33:39.868Z,27.40
2022-11-30T04:36:18.869Z,30.40
2022-11-30T04:38:46.422Z,25.92
2022-11-30T04:41:13.808Z,33.35
2022-11-30T04:43:40.879Z,32.50
2022-11-30T04:46:08.188Z,29.75
2022-11-30T04:48:35.654Z,27.92
2022-11-30T04:51:06.201Z,28.63
2022-11-30T04:53:37.897Z,28.40
2022-11-30T04:56:10.172Z,28.08
2022-11-30T04:58:39.051Z,25.45
2022-11-30T05:01:07.183Z,26.63
2022-11-30T05:03:34.286Z,23.50
2022-11-30T05:06:01.599Z,24.98
2022-11-30T05:08:28.739Z,25.77
2022-11-30T05:10:55.792Z,27.58
2022-11-30T05:13:25.291Z,25.27
2022-11-30T05:15:53.984Z,26.75
2022-11-30T05:18:21.304Z,26.23
2022-11-30T05:20:53.220Z,24.52
2022-11-30T05:23:21.232Z,26.52
2022-11-30T05:25:48.639Z,25.15
2022-11-30T05:28:15.990Z,23.13
2022-11-30T05:30:44.010Z,23.83
2022-11-30T05:33:13.593Z,23.73
2022-11-30T05:35:40.658Z,23.02
2022-11-30T05:38:07.817Z,24.30
2022-11-30T05:43:04.724Z,24.83
2022-11-30T05:45:32.094Z,25.40
2022-11-30T05:47:59.161Z,27.92
2022-11-30T05:50:26.281Z,27.55
2022-11-30T05:52:56.612Z,25.83
2022-11-30T05:55:28.976Z,26.05
2022-11-30T05:57:55.970Z,24.92
2022-11-30T06:00:25.394Z,24.60
2022-11-30T06:03:00.405Z,21.60
2022-11-30T06:05:28.467Z,24.65
2022-11-30T06:07:59.306Z,32.85
2022-11-30T06:10:27.389Z,29.38
2022-11-30T06:12:54.369Z,21.17
2022-11-30T06:15:21.429Z,23.80
2022-11-30T06:17:48.441Z,23.50
2022-11-30T06:20:16.195Z,26.10
2022-11-30T06:22:46.694Z,24.73
2022-11-30T06:25:15.052Z,23.40
2022-11-30T06:27:43.745Z,23.40
2022-11-30T06:30:11.891Z,23.52
2022-11-30T06:32:39.011Z,21.63
2022-11-30T06:35:06.554Z,27.45
2022-11-30T06:37:36.806Z,26.95
2022-11-30T06:40:06.999Z,26.70
2022-11-30T06:42:34.991Z,28.38
2022-11-30T06:45:02.193Z,27.63
2022-11-30T06:47:29.212Z,29.30
2022-11-30T06:49:58.922Z,26.52
2022-11-30T06:52:28.905Z,24.67
2022-11-30T06:54:55.853Z,31.08
2022-11-30T06:57:30.450Z,33.63
2022-11-30T06:59:57.904Z,33.90
2022-11-30T07:02:27.153Z,28.52
2022-11-30T07:04:54.188Z,33.17
2022-11-30T07:07:21.563Z,30.63
2022-11-30T07:09:52.277Z,30.48
2022-11-30T07:12:19.439Z,28.00
2022-11-30T07:14:46.733Z,30.08
2022-11-30T07:17:14.077Z,32.58
2022-11-30T07:19:41.148Z,36.55
2022-11-30T07:22:08.128Z,28.63
2022-11-30T07:24:53.421Z,33.42
2022-11-30T07:27:20.436Z,34.38
2022-11-30T07:29:49.042Z,35.83
2022-11-30T07:32:16.098Z,35.50
2022-11-30T07:34:44.356Z,36.40
2022-11-30T07:37:13.541Z,33.47
2022-11-30T07:39:40.664Z,34.13
2022-11-30T07:42:07.966Z,31.08
2022-11-30T07:44:35.326Z,31.95
2022-11-30T07:47:02.665Z,34.97
2022-11-30T07:49:29.651Z,33.85
2022-11-30T07:51:56.751Z,36.03
2022-11-30T07:54:23.734Z,34.45
2022-11-30T07:56:50.734Z,34.35
2022-11-30T07:59:17.965Z,33.38
2022-11-30T08:01:45.130Z,38.65
2022-11-30T08:04:14.987Z,39.50
2022-11-30T08:06:42.235Z,38.15
2022-11-30T08:09:17.866Z,37.30
2022-11-30T08:11:49.182Z,36.58
2022-11-30T08:14:17.670Z,34.50
2022-11-30T08:16:44.836Z,35.35
2022-11-30T08:19:11.896Z,38.05
2022-11-30T08:21:38.895Z,37.80
2022-11-30T08:24:06.268Z,38.03
2022-11-30T08:26:34.421Z,35.30
2022-11-30T08:29:02.289Z,37.97
2022-11-30T08:31:35.930Z,37.60
2022-11-30T08:34:10.843Z,38.30
2022-11-30T08:36:41.853Z,38.80
2022-11-30T08:39:12.459Z,42.08
2022-11-30T08:41:39.489Z,45.55
2022-11-30T08:44:06.876Z,37.00
2022-11-30T08:46:50.890Z,35.33
2022-11-30T08:49:24.488Z,35.88
2022-11-30T08:54:46.056Z,34.83
2022-11-30T08:57:18.842Z,45.07
2022-11-30T08:59:46.588Z,41.60
2022-11-30T09:02:19.616Z,34.60
2022-11-30T09:04:49.376Z,41.72
2022-11-30T09:07:21.374Z,38.65
2022-11-30T09:09:48.497Z,40.17
2022-11-30T09:12:15.543Z,36.20
2022-11-30T09:14:42.818Z,34.45
2022-11-30T09:17:09.994Z,34.85
2022-11-30T09:19:37.222Z,40.55
2022-11-30T09:22:04.315Z,42.08
2022-11-30T09:24:31.396Z,33.80
2022-11-30T09:26:58.513Z,37.97
2022-11-30T09:29:25.591Z,36.22
2022-11-30T09:31:55.714Z,35.35
2022-11-30T09:34:22.705Z,35.65
2022-11-30T09:36:49.714Z,35.50
2022-11-30T09:39:16.815Z,35.85
2022-11-30T09:42:24.378Z,35.55
2022-11-30T09:44:57.154Z,36.10
2022-11-30T09:48:11.548Z,36.17
2022-11-30T09:50:44.109Z,36.58
2022-11-30T09:53:29.715Z,36.17
2022-11-30T09:55:58.946Z,32.33
2022-11-30T09:58:44.954Z,32.70
2022-11-30T10:01:20.838Z,31.40
2022-11-30T10:03:52.881Z,35.35
2022-11-30T10:07:02.697Z,37.22
2022-11-30T10:13:26.812Z,38.15
2022-11-30T10:16:19.278Z,35.60
2022-11-30T10:22:04.939Z,36.28
2022-11-30T10:25:08.712Z,44.63
2022-11-30T10:27:55.568Z,44.10
2022-11-30T10:30:26.227Z,37.05
2022-11-30T10:32:56.634Z,37.75
2022-11-30T10:35:43.294Z,40.30
2022-11-30T10:38:33.937Z,36.53
2022-11-30T10:41:29.005Z,40.03
2022-11-30T10:44:04.075Z,37.65
2022-11-30T10:46:38.358Z,35.40
2022-11-30T10:49:19.917Z,34.83
2022-11-30T10:51:53.613Z,35.05
2022-11-30T10:54:22.820Z,36.38
2022-11-30T10:56:50.012Z,34.83
2022-11-30T10:59:33.666Z,36.47
2022-11-30T11:02:01.401Z,40.38
2022-11-30T11:04:28.675Z,38.53
2022-11-30T11:07:07.248Z,36.72
2022-11-30T11:09:53.594Z,30.83
2022-11-30T11:12:30.751Z,33.70
2022-11-30T11:15:32.355Z,34.22
2022-11-30T11:18:26.254Z,35.40
2022-11-30T11:21:08.194Z,34.42
2022-11-30T11:23:42.523Z,36.63
2022-11-30T11:26:29.603Z,39.50
2022-11-30T11:28:59.658Z,40.90
2022-11-30T11:31:49.179Z,40.13
2022-11-30T11:34:34.506Z,40.83
2022-11-30T11:37:33.881Z,39.58
2022-11-30T11:40:02.368Z,38.92
2022-11-30T11:42:53.054Z,31.35
2022-11-30T11:45:37.144Z,34.97
2022-11-30T11:48:37.704Z,34.22
2022-11-30T11:51:09.380Z,37.92
2022-11-30T11:53:51.699Z,30.58
2022-11-30T11:56:37.788Z,36.33
2022-11-30T11:59:42.247Z,37.20
2022-11-30T12:02:36.457Z,41.88
2022-11-30T12:05:17.780Z,39.40
2022-11-30T12:08:10.355Z,40.00
2022-11-30T12:13:27.276Z,37.65
2022-11-30T12:16:12.390Z,41.55
2022-11-30T12:19:15.164Z,37.38
2022-11-30T12:25:18.623Z,32.92
2022-11-30T12:28:35.093Z,32.22
2022-11-30T12:31:15.826Z,33.50
2022-11-30T12:33:42.876Z,35.25
2022-11-30T12:36:48.491Z,32.22
2022-11-30T12:39:32.331Z,34.75
2022-11-30T12:42:15.338Z,32.50
2022-11-30T12:44:45.965Z,35.05
2022-11-30T12:48:01.820Z,37.85
2022-11-30T12:51:10.948Z,33.92
2022-11-30T12:54:05.641Z,33.90
2022-11-30T12:56:55.842Z,33.60
2022-11-30T12:59:33.739Z,34.75
2022-11-30T13:02:40.948Z,36.47
2022-11-30T13:05:54.790Z,37.58
2022-11-30T13:08:34.975Z,37.20
2022-11-30T13:11:11.724Z,30.98
2022-11-30T13:13:52.700Z,33.00
2022-11-30T13:16:22.788Z,33.28
2022-11-30T13:18:52.946Z,36.65
2022-11-30T13:21:42.161Z,35.85
2022-11-30T13:24:29.155Z,32.95
2022-11-30T13:27:16.229Z,34.13
2022-11-30T13:30:16.967Z,33.63
2022-11-30T13:32:59.455Z,34.72
2022-11-30T13:35:29.597Z,31.42
2022-11-30T13:38:35.879Z,31.50
2022-11-30T13:41:05.713Z,33.47
2022-11-30T13:43:48.109Z,35.10
2022-11-30T13:46:33.023Z,29.45
2022-11-30T13:49:29.081Z,34.85
2022-11-30T13:52:21.577Z,36.05
2022-11-30T13:54:50.776Z,32.42
2022-11-30T13:57:30.411Z,31.77
2022-11-30T14:00:22.914Z,31.27
2022-11-30T14:02:54.507Z,30.92
2022-11-30T14:05:38.722Z,30.75
2022-11-30T14:08:13.913Z,35.33
2022-11-30T14:10:51.680Z,31.88
2022-11-30T14:13:22.766Z,31.63
2022-11-30T14:16:00.486Z,33.00
2022-11-30T14:18:40.487Z,30.67
2022-11-30T14:21:18.573Z,27.17
2022-11-30T14:24:15.797Z,22.33
2022-11-30T14:26:50.485Z,24.30
2022-11-30T14:29:31.502Z,23.25
2022-11-30T14:32:18.461Z,23.65
2022-11-30T14:34:52.309Z,25.27
2022-11-30T14:37:27.154Z,18.67
2022-11-30T14:39:56.753Z,19.90
2022-11-30T14:42:26.323Z,20.70
2022-11-30T14:44:57.674Z,19.65
2022-11-30T14:47:35.751Z,19.73
2022-11-30T14:50:08.341Z,22.77
2022-11-30T14:52:52.108Z,24.25
2022-11-30T14:55:57.575Z,21.77
2022-11-30T14:58:42.310Z,22.50
2022-11-30T15:01:25.410Z,22.13
2022-11-30T15:04:02.820Z,22.63
2022-11-30T15:06:33.420Z,20.63
2022-11-30T15:09:02.366Z,24.77
2022-11-30T15:11:29.908Z,23.02
2022-11-30T15:14:26.075Z,22.92
2022-11-30T15:16:58.078Z,22.85
2022-11-30T15:19:29.140Z,20.40
2022-11-30T15:21:58.368Z,20.13
2022-11-30T15:24:27.014Z,24.55
2022-11-30T15:27:10.596Z,23.60
2022-11-30T15:30:03.154Z,24.20
2022-11-30T15:35:01.090Z,28.33
2022-11-30T15:37:38.969Z,29.50
2022-11-30T15:40:10.916Z,21.65
2022-11-30T15:42:40.549Z,25.13
2022-11-30T15:45:21.747Z,31.15
2022-11-30T15:47:49.171Z,27.05
2022-11-30T15:50:30.933Z,21.17
2022-11-30T15:53:03.801Z,22.05
2022-11-30T15:56:07.677Z,21.08
2022-11-30T15:59:08.202Z,22.25
2022-11-30T16:02:16.001Z,20.67
2022-11-30T16:04:58.268Z,20.30
2022-11-30T16:07:33.429Z,16.65
2022-11-30T16:10:16.459Z,16.20
2022-11-30T16:12:45.024Z,18.20
2022-11-30T16:15:20.033Z,21.30
2022-11-30T16:17:47.336Z,20.55
2022-11-30T16:20:15.879Z,23.35
2022-11-30T16:22:46.184Z,21.42
2022-11-30T16:25:17.372Z,21.77
2022-11-30T16:27:47.783Z,22.40
2022-11-30T16:30:19.258Z,19.42
2022-11-30T16:32:46.990Z,20.15
2022-11-30T16:35:50.900Z,19.55
2022-11-30T16:38:20.348Z,21.80
2022-11-30T16:40:47.596Z,21.10
2022-11-30T16:43:15.232Z,22.40
2022-11-30T16:45:44.192Z,20.83
2022-11-30T16:48:11.332Z,19.20
2022-11-30T16:50:44.638Z,25.95
2022-11-30T16:53:15.281Z,23.05
2022-11-30T16:55:42.909Z,23.75
2022-11-30T16:58:10.177Z,23.27
2022-11-30T17:00:40.129Z,21.75
2022-11-30T17:03:26.524Z,20.20
2022-11-30T17:05:53.565Z,21.65
2022-11-30T17:08:20.867Z,23.00
2022-11-30T17:10:53.074Z,25.95
2022-11-30T17:15:49.325Z,13.88
2022-11-30T17:18:16.352Z,21.83
2022-11-30T17:20:43.392Z,24.95
2022-11-30T17:23:12.874Z,27.60
2022-11-30T17:25:40.027Z,23.48
2022-11-30T17:28:07.075Z,24.58
2022-11-30T17:30:36.620Z,28.42
2022-11-30T17:33:03.720Z,24.52
2022-11-30T17:35:31.139Z,28.10
2022-11-30T17:38:00.385Z,26.20
2022-11-30T17:40:27.372Z,26.65
2022-11-30T17:42:54.382Z,30.65
2022-11-30T17:45:21.399Z,30.52
2022-11-30T17:47:48.433Z,24.48
2022-11-30T17:50:15.593Z,26.23
2022-11-30T17:52:42.685Z,24.30
2022-11-30T17:55:10.244Z,26.23
2022-11-30T17:57:38.626Z,25.00
2022-11-30T18:00:08.661Z,22.75
2022-11-30T18:02:37.925Z,27.85
2022-11-30T18:05:05.706Z,32.10
2022-11-30T18:07:32.861Z,22.08
2022-11-30T18:10:01.824Z,24.60
2022-11-30T18:12:31.462Z,23.77
2022-11-30T18:14:58.549Z,26.65
2022-11-30T18:17:25.648Z,29.00
2022-11-30T18:19:52.658Z,25.58
2022-11-30T18:22:19.775Z,25.42
2022-11-30T18:24:47.223Z,26.77
2022-11-30T18:27:14.518Z,27.05
2022-11-30T18:29:41.945Z,23.70
2022-11-30T18:32:10.480Z,23.73
2022-11-30T18:34:42.467Z,26.67
2022-11-30T18:37:09.463Z,25.30
2022-11-30T18:39:38.530Z,26.83
2022-11-30T18:42:05.524Z,27.58
2022-11-30T18:44:33.114Z,24.90
2022-11-30T18:47:00.149Z,27.85
2022-11-30T18:49:27.198Z,28.70
2022-11-30T18:51:54.221Z,25.30
2022-11-30T18:54:21.308Z,26.58
2022-11-30T18:56:48.260Z,27.13
2022-11-30T18:59:20.845Z,28.88
2022-11-30T19:01:47.949Z,32.47
2022-11-30T19:04:15.046Z,24.50
2022-11-30T19:06:43.282Z,26.83
2022-11-30T19:09:14.491Z,38.78
2022-11-30T19:11:45.663Z,48.33
2022-11-30T19:14:15.307Z,31.83
2022-11-30T19:16:43.871Z,22.55
2022-11-30T19:19:14.095Z,27.77
2022-11-30T19:21:47.955Z,28.45
2022-11-30T19:24:16.405Z,28.00
2022-11-30T19:26:43.394Z,27.77
2022-11-30T19:29:12.047Z,27.77
2022-11-30T19:31:39.441Z,28.42
2022-11-30T19:34:10.808Z,29.90
2022-11-30T19:36:39.582Z,30.80
2022-11-30T19:39:06.681Z,31.65
2022-11-30T19:41:35.763Z,29.70
2022-11-30T19:44:04.273Z,30.23
2022-11-30T19:46:33.194Z,31.08
2022-11-30T19:49:04.144Z,33.92
2022-11-30T19:51:32.087Z,34.78
2022-11-30T19:53:59.791Z,32.75
2022-11-30T19:56:31.593Z,36.67
2022-11-30T19:59:04.378Z,33.08
2022-11-30T20:01:35.052Z,31.30
2022-11-30T20:04:04.845Z,29.40
2022-11-30T20:06:38.439Z,26.23
2022-11-30T20:09:08.563Z,25.55
2022-11-30T20:11:35.613Z,26.25
2022-11-30T20:14:02.901Z,27.65
2022-11-30T20:16:30.221Z,28.85
2022-11-30T20:19:03.417Z,30.30
2022-11-30T20:21:34.421Z,34.67
2022-11-30T20:24:06.742Z,30.38
2022-11-30T20:26:40.417Z,29.08
2022-11-30T20:29:16.357Z,27.80
2022-11-30T20:31:48.477Z,24.52
2022-11-30T20:34:16.631Z,25.05
2022-11-30T20:36:46.984Z,27.08
2022-11-30T20:39:15.520Z,28.13
2022-11-30T20:41:44.844Z,27.48
2022-11-30T20:44:17.023Z,25.45
2022-11-30T20:49:17.985Z,27.20
2022-11-30T20:51:47.013Z,25.10
2022-11-30T20:54:15.641Z,22.90
2022-11-30T20:56:42.706Z,23.98
2022-11-30T20:59:19.563Z,27.35
2022-11-30T21:01:48.122Z,25.88
2022-11-30T21:04:15.182Z,27.00
2022-11-30T21:06:45.634Z,23.40
2022-11-30T21:09:18.164Z,24.38
2022-11-30T21:11:47.074Z,25.23
2022-11-30T21:14:14.833Z,25.95
2022-11-30T21:16:41.964Z,26.20
2022-11-30T21:19:14.481Z,25.50
2022-11-30T21:21:43.649Z,23.20
2022-11-30T21:24:12.049Z,24.20
2022-11-30T21:26:42.705Z,22.67
2022-11-30T21:29:15.949Z,22.48
2022-11-30T21:31:43.682Z,22.55
2022-11-30T21:34:13.834Z,21.38
2022-11-30T21:36:40.886Z,22.52
2022-11-30T21:39:15.734Z,21.13
2022-11-30T21:41:42.867Z,20.98
2022-11-30T21:44:15.344Z,24.13
2022-11-30T21:46:45.645Z,22.42
2022-11-30T21:49:14.997Z,24.23
2022-11-30T21:51:42.805Z,27.25
2022-11-30T21:54:13.154Z,23.35
2022-11-30T21:56:44.939Z,23.63
2022-11-30T21:59:14.728Z,21.50
2022-11-30T22:01:47.767Z,24.45
2022-11-30T22:04:15.767Z,23.30
2022-11-30T22:06:43.498Z,25.95
2022-11-30T22:09:17.059Z,21.83
2022-11-30T22:11:45.543Z,24.33
2022-11-30T22:14:16.288Z,21.95
2022-11-30T22:16:43.950Z,20.58
2022-11-30T22:19:11.295Z,24.05
2022-11-30T22:21:38.659Z,23.70
2022-11-30T22:24:09.813Z,26.17
2022-11-30T22:26:42.652Z,23.85
2022-11-30T22:29:22.620Z,25.50
2022-11-30T22:31:52.830Z,26.77
2022-11-30T22:34:21.099Z,22.63
2022-11-30T22:36:50.759Z,23.80
2022-11-30T22:39:20.718Z,23.88
2022-11-30T22:41:54.569Z,24.80
2022-11-30T22:44:26.542Z,23.50
2022-11-30T22:46:53.727Z,26.15
2022-11-30T22:49:22.048Z,28.80
2022-11-30T22:51:49.701Z,26.50
2022-11-30T22:54:17.349Z,22.73
2022-11-30T22:56:46.748Z,23.88
2022-11-30T22:59:14.542Z,24.33
2022-11-30T23:01:47.778Z,24.75
2022-11-30T23:04:21.287Z,23.63
2022-11-30T23:06:50.051Z,25.52
2022-11-30T23:09:22.915Z,27.48
2022-11-30T23:11:52.847Z,25.55
2022-11-30T23:14:20.200Z,24.38
2022-11-30T23:16:49.436Z,23.38
2022-11-30T23:19:16.801Z,23.70
2022-11-30T23:21:48.871Z,25.88
2022-11-30T23:26:51.093Z,22.75
2022-11-30T23:29:21.125Z,24.40
2022-11-30T23:31:48.635Z,22.05
2022-11-30T23:34:22.332Z,21.25
2022-11-30T23:36:50.472Z,26.75
2022-11-30T23:39:19.507Z,24.25
2022-11-30T23:41:49.116Z,24.80
2022-11-30T23:44:16.469Z,23.70
2022-11-30T23:46:43.539Z,22.85
2022-11-30T23:49:14.239Z,21.70
2022-11-30T23:51:42.003Z,24.40
2022-11-30T23:54:09.394Z,23.52
2022-11-30T23:56:36.476Z,23.35
2022-11-30T23:59:03.566Z,24.30
